Time;durP1;ratioP1;P1;durP2;ratioP2;P2;SDS_P1;SDS_P2;PMS_P1;PMS_P2;Temp;Humidity;BMP_temperature;BMP_pressure;BME280_temperature;BME280_humidity;BME280_pressure;Samples;Min_cycle;Max_cycle;Signal;HPM_P1;HPM_P2
2021/05/04 00:01:53;;;;;;;;;;;;;;;27.06;25.38;100870.09;5063193;28;799;-35
2021/05/04 00:04:18;;;;;;;;;;;;;;;27.07;25.53;100875.31;5063890;28;794;-35
2021/05/04 00:06:43;;;;;;;;;;;;;;;27.04;25.70;100872.13;5062904;28;840;-36
2021/05/04 00:09:09;;;;;;;;;;;;;;;27.05;25.83;100871.09;5062925;28;998;-36
2021/05/04 00:11:34;;;;;;;;;;;;;;;27.11;26.09;100862.28;5063197;28;802;-36
2021/05/04 00:13:59;;;;;;;;;;;;;;;27.14;26.73;100870.84;5063114;28;1118;-36
2021/05/04 00:16:25;;;;;;;;;;;;;;;27.09;25.80;100873.25;5063034;28;1910;-35
2021/05/04 00:18:50;;;;;;;;;;;;;;;27.16;25.29;100876.06;5063268;28;802;-36
2021/05/04 00:21:15;;;;;;;;;;;;;;;27.08;25.27;100884.22;5062633;28;814;-35
2021/05/04 00:23:40;;;;;;;;;;;;;;;27.07;24.86;100886.13;5058320;28;968;-35
2021/05/04 00:26:08;;;;;;;;;;;;;;;27.01;24.55;100881.38;5043084;28;871;-35
2021/05/04 00:28:33;;;;;;;;;;;;;;;27.02;24.52;100889.34;5042882;28;767;-34
2021/05/04 00:30:58;;;;;;;;;;;;;;;27.04;24.29;100893.72;5043128;28;886;-35
2021/05/04 00:33:24;;;;;;;;;;;;;;;27.04;24.40;100889.19;5042931;28;815;-34
2021/05/04 00:35:49;;;;;;;;;;;;;;;26.99;24.20;100888.84;5042785;28;1901;-35
2021/05/04 00:38:14;;;;;;;;;;;;;;;26.93;24.13;100897.63;5041051;28;1155;-35
2021/05/04 00:40:39;;;;;;;;;;;;;;;26.92;24.70;100895.97;5042989;28;728;-36
2021/05/04 00:43:11;;;;;;;;;;;;;;;26.96;24.38;100900.81;5042620;28;768;-35
2021/05/04 00:45:36;;;;;;;;;;;;;;;26.94;24.39;100893.94;5042945;28;827;-36
2021/05/04 00:48:01;;;;;;;;;;;;;;;26.90;24.46;100893.44;5042998;28;824;-36
2021/05/04 00:50:26;;;;;;;;;;;;;;;26.92;24.32;100901.34;5042717;28;875;-35
2021/05/04 00:52:52;;;;;;;;;;;;;;;26.93;24.52;100905.72;5042920;28;752;-36
2021/05/04 00:55:17;;;;;;;;;;;;;;;26.98;24.34;100903.34;5042080;28;1973;-36
2021/05/04 00:57:44;;;;;;;;;;;;;;;26.88;24.79;100908.97;5024773;28;839;-35
2021/05/04 01:00:11;;;;;;;;;;;;;;;26.89;24.64;100908.78;5042807;28;975;-35
2021/05/04 01:02:37;;;;;;;;;;;;;;;26.86;24.90;100908.31;5042416;28;831;-36
2021/05/04 01:05:02;;;;;;;;;;;;;;;26.85;24.86;100904.78;5058187;28;771;-34
2021/05/04 01:07:27;;;;;;;;;;;;;;;26.83;24.77;100901.41;5042676;28;846;-35
2021/05/04 01:09:53;;;;;;;;;;;;;;;26.89;24.53;100892.59;5042379;28;991;-35
2021/05/04 01:12:36;;;;;;;;;;;;;;;26.91;24.67;100903.22;5039413;28;755;-36
2021/05/04 01:15:02;;;;;;;;;;;;;;;26.83;24.84;100904.09;5039434;28;1918;-35
2021/05/04 01:17:27;;;;;;;;;;;;;;;26.89;24.41;100903.38;5039369;28;858;-36
2021/05/04 01:19:52;;;;;;;;;;;;;;;26.87;24.65;100894.66;5039248;28;913;-36
2021/05/04 01:22:18;;;;;;;;;;;;;;;26.85;24.69;100901.22;5039568;28;833;-35
2021/05/04 01:24:43;;;;;;;;;;;;;;;26.85;24.53;100893.97;5052349;28;960;-35
2021/05/04 01:27:08;;;;;;;;;;;;;;;26.85;24.78;100896.69;5059412;28;810;-36
2021/05/04 01:29:34;;;;;;;;;;;;;;;26.84;24.80;100889.56;5059566;28;763;-34
2021/05/04 01:31:59;;;;;;;;;;;;;;;26.85;24.78;100890.44;5059033;28;739;-33
2021/05/04 01:34:25;;;;;;;;;;;;;;;26.82;25.03;100896.19;5058885;28;857;-36
2021/05/04 01:36:50;;;;;;;;;;;;;;;26.80;24.82;100893.66;5059587;28;1898;-35
2021/05/04 01:39:15;;;;;;;;;;;;;;;26.81;24.51;100891.81;5058606;28;923;-35
2021/05/04 01:41:41;;;;;;;;;;;;;;;26.84;24.39;100884.19;5058765;28;847;-35
2021/05/04 01:44:06;;;;;;;;;;;;;;;26.81;24.69;100883.72;5059062;28;806;-34
2021/05/04 01:46:32;;;;;;;;;;;;;;;26.76;24.82;100895.03;5058954;28;787;-36
2021/05/04 01:48:58;;;;;;;;;;;;;;;26.77;24.55;100899.41;5058615;28;819;-35
2021/05/04 01:51:26;;;;;;;;;;;;;;;26.75;24.72;100896.06;5058635;28;890;-35
2021/05/04 01:53:51;;;;;;;;;;;;;;;26.74;25.12;100903.28;5058260;28;1548;-36
2021/05/04 01:56:16;;;;;;;;;;;;;;;26.80;25.00;100899.06;5059066;28;1975;-35
2021/05/04 01:58:42;;;;;;;;;;;;;;;26.86;25.02;100890.25;5058840;28;810;-34
2021/05/04 02:01:07;;;;;;;;;;;;;;;26.78;25.12;100901.09;5058466;28;807;-35
2021/05/04 02:03:32;;;;;;;;;;;;;;;26.72;25.25;100901.81;5058499;28;790;-35
2021/05/04 02:05:58;;;;;;;;;;;;;;;26.72;25.35;100904.50;5058162;28;971;-34
2021/05/04 02:08:23;;;;;;;;;;;;;;;26.73;25.57;100900.78;5058266;28;1006;-33
2021/05/04 02:10:48;;;;;;;;;;;;;;;26.69;25.30;100902.16;5058484;28;802;-34
2021/05/04 02:13:25;;;;;;;;;;;;;;;26.75;25.42;100905.00;5058277;28;878;-36
2021/05/04 02:15:51;;;;;;;;;;;;;;;26.74;25.64;100899.78;5038485;28;1910;-36
2021/05/04 02:18:19;;;;;;;;;;;;;;;26.73;25.54;100901.63;5038389;28;835;-35
2021/05/04 02:20:44;;;;;;;;;;;;;;;26.74;25.94;100902.47;5038320;28;764;-35
2021/05/04 02:23:10;;;;;;;;;;;;;;;26.82;25.80;100917.78;5037447;28;1089;-33
2021/05/04 02:25:35;;;;;;;;;;;;;;;26.83;26.05;100916.75;5018120;28;859;-35
2021/05/04 02:28:03;;;;;;;;;;;;;;;26.76;26.47;100909.38;5018466;28;795;-35
2021/05/04 02:30:28;;;;;;;;;;;;;;;26.82;26.38;100909.69;5018490;28;840;-36
2021/05/04 02:32:53;;;;;;;;;;;;;;;26.78;26.30;100917.28;5018042;28;903;-34
2021/05/04 02:35:18;;;;;;;;;;;;;;;26.84;25.75;100915.75;5018678;28;1967;-35
2021/05/04 02:37:44;;;;;;;;;;;;;;;26.86;25.90;100913.72;5018181;28;826;-35
2021/05/04 02:40:09;;;;;;;;;;;;;;;26.80;25.58;100915.25;5018323;28;933;-34
2021/05/04 02:42:41;;;;;;;;;;;;;;;26.76;25.57;100919.31;5018316;28;760;-34
2021/05/04 02:45:06;;;;;;;;;;;;;;;26.74;26.19;100915.97;5018028;28;803;-34
2021/05/04 02:47:32;;;;;;;;;;;;;;;26.68;25.68;100914.81;5018519;28;811;-36
2021/05/04 02:49:57;;;;;;;;;;;;;;;26.64;26.09;100918.88;5018160;28;779;-34
2021/05/04 02:52:22;;;;;;;;;;;;;;;26.62;25.46;100923.59;5017901;28;843;-36
2021/05/04 02:54:47;;;;;;;;;;;;;;;26.60;25.63;100921.09;5017827;28;1972;-34
2021/05/04 02:57:13;;;;;;;;;;;;;;;26.65;25.47;100929.50;5018308;28;831;-34
2021/05/04 02:59:38;;;;;;;;;;;;;;;26.74;25.31;100927.59;5017873;28;787;-34
2021/05/04 03:02:03;;;;;;;;;;;;;;;26.69;25.11;100937.25;5017988;28;747;-35
2021/05/04 03:04:28;;;;;;;;;;;;;;;26.63;25.62;100938.78;5017916;28;982;-34
2021/05/04 03:06:54;;;;;;;;;;;;;;;26.62;25.22;100946.03;5017616;28;859;-35
2021/05/04 03:09:19;;;;;;;;;;;;;;;26.67;24.99;100944.66;5017557;28;953;-34
2021/05/04 03:11:44;;;;;;;;;;;;;;;26.64;25.03;100945.88;5017369;28;846;-34
2021/05/04 03:14:10;;;;;;;;;;;;;;;26.65;25.08;100943.00;5023200;28;1033;-33
2021/05/04 03:16:35;;;;;;;;;;;;;;;26.64;25.07;100948.56;5037360;28;1965;-36
2021/05/04 03:19:00;;;;;;;;;;;;;;;26.69;25.02;100962.38;5037358;28;819;-36
2021/05/04 03:21:27;;;;;;;;;;;;;;;26.67;25.66;100969.78;5037333;28;744;-35
2021/05/04 03:23:53;;;;;;;;;;;;;;;26.75;25.69;100982.41;5042710;28;1011;-34
2021/05/04 03:26:18;;;;;;;;;;;;;;;26.74;25.56;100984.25;5057171;28;814;-33
2021/05/04 03:28:43;;;;;;;;;;;;;;;26.72;25.95;100991.72;5057115;28;770;-34
2021/05/04 03:31:09;;;;;;;;;;;;;;;26.70;25.88;100990.19;5057454;28;862;-36
2021/05/04 03:33:34;;;;;;;;;;;;;;;26.70;25.65;101000.97;5056951;28;810;-33
2021/05/04 03:35:59;;;;;;;;;;;;;;;26.69;25.36;100996.59;5056358;28;1905;-35
2021/05/04 03:38:24;;;;;;;;;;;;;;;26.70;25.42;101000.97;5056781;28;967;-34
2021/05/04 03:40:50;;;;;;;;;;;;;;;26.64;25.74;101000.66;5056829;28;506;-33
2021/05/04 03:43:18;;;;;;;;;;;;;;;26.65;25.72;101013.16;5056911;28;771;-35
2021/05/04 03:45:44;;;;;;;;;;;;;;;26.70;25.52;101009.06;5056590;28;830;-38
2021/05/04 03:48:09;;;;;;;;;;;;;;;26.38;25.13;101015.22;5056720;28;795;-37
2021/05/04 03:50:34;;;;;;;;;;;;;;;25.70;25.96;101014.56;5056895;28;767;-34
2021/05/04 03:53:00;;;;;;;;;;;;;;;25.53;25.76;101022.56;5056479;28;771;-41
2021/05/04 03:55:26;;;;;;;;;;;;;;;25.65;26.67;101026.69;5055975;28;1952;-43
2021/05/04 03:57:51;;;;;;;;;;;;;;;25.60;25.54;101026.31;5056902;28;818;-39
2021/05/04 04:00:17;;;;;;;;;;;;;;;25.30;25.67;101021.38;5057153;28;754;-36
2021/05/04 04:02:42;;;;;;;;;;;;;;;25.30;25.96;101023.22;5056540;28;748;-42
2021/05/04 04:05:08;;;;;;;;;;;;;;;25.98;25.54;101030.38;5056823;28;877;-41
2021/05/04 04:07:33;;;;;;;;;;;;;;;26.31;25.84;101040.34;5056912;28;750;-40
2021/05/04 04:09:59;;;;;;;;;;;;;;;26.47;25.67;101037.66;5056346;28;943;-41
2021/05/04 04:12:30;;;;;;;;;;;;;;;26.48;25.61;101046.56;5056963;28;819;-41
2021/05/04 04:14:55;;;;;;;;;;;;;;;26.53;25.86;101061.22;5055880;28;1918;-35
2021/05/04 04:17:21;;;;;;;;;;;;;;;26.21;25.79;101054.81;5055495;28;1065;-41
2021/05/04 04:19:46;;;;;;;;;;;;;;;25.89;26.19;101059.22;5056009;28;883;-34
2021/05/04 04:22:12;;;;;;;;;;;;;;;25.87;26.61;101070.16;5055971;28;847;-40
2021/05/04 04:24:37;;;;;;;;;;;;;;;25.81;26.76;101076.19;5043730;28;944;-34
2021/05/04 04:27:02;;;;;;;;;;;;;;;25.87;26.42;101077.41;5043573;28;855;-38
2021/05/04 04:29:28;;;;;;;;;;;;;;;25.86;26.55;101083.81;5048320;28;1073;-40
2021/05/04 04:31:53;;;;;;;;;;;;;;;25.84;26.66;101083.13;5051323;28;1170;-38
2021/05/04 04:34:19;;;;;;;;;;;;;;;25.85;26.95;101084.81;5053445;28;1114;-35
2021/05/04 04:36:44;;;;;;;;;;;;;;;26.15;27.11;101083.31;5055826;28;1871;-38
2021/05/04 04:39:09;;;;;;;;;;;;;;;26.28;26.89;101085.50;5047560;28;923;-35
2021/05/04 04:41:35;;;;;;;;;;;;;;;26.45;26.80;101088.22;5036298;28;756;-38
2021/05/04 04:44:01;;;;;;;;;;;;;;;26.52;26.76;101083.00;5036166;28;783;-34
2021/05/04 04:46:39;;;;;;;;;;;;;;;26.53;27.06;101095.44;5047782;28;1182;-38
2021/05/04 04:49:04;;;;;;;;;;;;;;;26.56;26.82;101097.81;5073875;28;1391;-39
2021/05/04 04:51:29;;;;;;;;;;;;;;;26.55;26.89;101106.91;5059642;28;909;-39
2021/05/04 04:53:55;;;;;;;;;;;;;;;26.57;27.29;101109.44;5053561;28;967;-38
2021/05/04 04:56:20;;;;;;;;;;;;;;;26.67;28.20;101115.50;5054810;28;1965;-39
2021/05/04 04:58:46;;;;;;;;;;;;;;;26.70;28.79;101112.47;5046687;28;1037;-38
2021/05/04 05:01:12;;;;;;;;;;;;;;;26.97;28.21;101112.22;5059878;28;799;-39
2021/05/04 05:03:37;;;;;;;;;;;;;;;27.15;28.34;101117.44;5059458;28;939;-40
2021/05/04 05:06:02;;;;;;;;;;;;;;;27.24;28.19;101124.47;5059702;28;751;-40
2021/05/04 05:08:28;;;;;;;;;;;;;;;27.25;28.24;101126.19;5056389;28;960;-36
2021/05/04 05:10:53;;;;;;;;;;;;;;;27.35;28.37;101127.81;5039244;28;865;-39
2021/05/04 05:13:18;;;;;;;;;;;;;;;27.36;28.46;101129.53;5039644;28;755;-37
2021/05/04 05:15:44;;;;;;;;;;;;;;;27.37;28.60;101134.75;5039223;28;1971;-36
2021/05/04 05:18:09;;;;;;;;;;;;;;;27.43;28.41;101137.75;5039485;28;771;-36
2021/05/04 05:20:34;;;;;;;;;;;;;;;27.48;28.50;101138.06;5039291;28;818;-35
2021/05/04 05:23:00;;;;;;;;;;;;;;;27.38;28.36;101135.56;5038977;28;884;-39
2021/05/04 05:25:25;;;;;;;;;;;;;;;27.45;28.43;101143.81;5058245;28;1011;-34
2021/05/04 05:27:50;;;;;;;;;;;;;;;27.38;28.76;101143.69;5074810;28;787;-37
2021/05/04 05:30:16;;;;;;;;;;;;;;;27.41;29.03;101145.19;5074314;28;887;-41
2021/05/04 05:32:41;;;;;;;;;;;;;;;27.42;29.30;101144.16;5059112;28;748;-35
2021/05/04 05:35:08;;;;;;;;;;;;;;;27.38;29.53;101139.13;5059118;28;1910;-35
2021/05/04 05:37:33;;;;;;;;;;;;;;;27.42;29.15;101152.28;5059096;28;811;-36
2021/05/04 05:40:02;;;;;;;;;;;;;;;27.47;29.57;101152.59;5056114;28;1249;-38
2021/05/04 05:42:27;;;;;;;;;;;;;;;27.41;29.27;101156.00;5041357;28;814;-36
2021/05/04 05:44:52;;;;;;;;;;;;;;;27.45;29.32;101158.19;5058634;28;819;-38
2021/05/04 05:47:17;;;;;;;;;;;;;;;27.50;29.67;101157.66;5055176;28;864;-38
2021/05/04 05:49:43;;;;;;;;;;;;;;;27.58;29.50;101156.75;5039202;28;797;-37
2021/05/04 05:52:09;;;;;;;;;;;;;;;27.53;29.70;101149.19;5038825;28;778;-39
2021/05/04 05:54:34;;;;;;;;;;;;;;;27.50;29.49;101153.09;5049893;28;936;-38
2021/05/04 05:57:02;;;;;;;;;;;;;;;27.54;29.75;101144.63;5058451;28;1897;-37
2021/05/04 05:59:28;;;;;;;;;;;;;;;27.60;29.69;101152.03;5073358;28;789;-38
2021/05/04 06:01:53;;;;;;;;;;;;;;;27.60;29.57;101154.72;5058629;28;849;-38
2021/05/04 06:04:18;;;;;;;;;;;;;;;27.58;29.44;101159.47;5058490;28;779;-39
2021/05/04 06:06:44;;;;;;;;;;;;;;;27.59;29.47;101151.16;5058459;28;822;-36
2021/05/04 06:09:09;;;;;;;;;;;;;;;27.52;30.00;101144.81;5058321;28;947;-34
2021/05/04 06:11:35;;;;;;;;;;;;;;;27.64;29.96;101142.56;5058355;28;780;-35
2021/05/04 06:14:06;;;;;;;;;;;;;;;27.64;30.07;101139.84;5057674;28;1007;-36
2021/05/04 06:16:32;;;;;;;;;;;;;;;27.71;29.69;101132.72;5058016;28;1910;-35
2021/05/04 06:18:57;;;;;;;;;;;;;;;27.75;29.54;101133.22;5057930;28;845;-37
2021/05/04 06:21:22;;;;;;;;;;;;;;;27.64;30.14;101131.75;5057891;28;853;-34
2021/05/04 06:23:47;;;;;;;;;;;;;;;27.59;29.87;101143.06;5057370;28;956;-34
2021/05/04 06:26:13;;;;;;;;;;;;;;;27.61;30.08;101143.75;5057970;28;771;-36
2021/05/04 06:28:40;;;;;;;;;;;;;;;27.60;30.00;101150.19;5057961;28;918;-34
2021/05/04 06:31:06;;;;;;;;;;;;;;;27.70;29.84;101157.25;5057716;28;1160;-33
2021/05/04 06:33:31;;;;;;;;;;;;;;;27.68;29.86;101159.25;5057762;28;775;-37
2021/05/04 06:35:56;;;;;;;;;;;;;;;27.68;29.95;101164.66;5057844;28;1906;-37
2021/05/04 06:38:22;;;;;;;;;;;;;;;27.66;29.91;101159.41;5055865;28;916;-34
2021/05/04 06:40:50;;;;;;;;;;;;;;;27.77;29.93;101160.06;5057778;28;747;-37
2021/05/04 06:43:15;;;;;;;;;;;;;;;27.75;29.89;101158.41;5057767;28;806;-37
2021/05/04 06:45:41;;;;;;;;;;;;;;;27.73;29.74;101163.13;5057707;28;818;-35
2021/05/04 06:48:06;;;;;;;;;;;;;;;27.84;29.91;101163.75;5057973;28;771;-37
2021/05/04 06:50:32;;;;;;;;;;;;;;;27.94;29.60;101150.03;5057846;28;775;-35
2021/05/04 06:52:57;;;;;;;;;;;;;;;27.98;29.63;101148.63;5056364;28;879;-36
2021/05/04 06:55:22;;;;;;;;;;;;;;;28.04;29.61;101145.22;5057221;28;1965;-36
2021/05/04 06:57:48;;;;;;;;;;;;;;;27.95;29.16;101147.13;5039565;28;1438;-37
2021/05/04 07:00:14;;;;;;;;;;;;;;;27.96;29.30;101137.16;5057444;28;854;-39
2021/05/04 07:02:39;;;;;;;;;;;;;;;27.89;29.84;101128.06;5072261;28;822;-37
2021/05/04 07:05:05;;;;;;;;;;;;;;;27.94;29.92;101131.94;5057019;28;766;-38
2021/05/04 07:07:30;;;;;;;;;;;;;;;27.98;30.19;101130.53;5057650;28;961;-35
2021/05/04 07:09:55;;;;;;;;;;;;;;;27.93;30.23;101137.50;5056123;28;1010;-37
2021/05/04 07:12:21;;;;;;;;;;;;;;;27.93;30.24;101132.09;5057294;28;767;-38
2021/05/04 07:14:46;;;;;;;;;;;;;;;27.97;30.20;101136.13;5056281;28;1174;-37
2021/05/04 07:17:11;;;;;;;;;;;;;;;27.94;30.18;101141.91;5057144;28;1979;-36
2021/05/04 07:19:39;;;;;;;;;;;;;;;27.97;30.19;101142.41;5057151;28;827;-35
2021/05/04 07:22:07;;;;;;;;;;;;;;;27.97;30.31;101145.09;5056487;28;1568;-36
2021/05/04 07:24:32;;;;;;;;;;;;;;;28.05;30.08;101144.19;5044805;28;1017;-36
2021/05/04 07:26:57;;;;;;;;;;;;;;;27.96;30.17;101147.97;5037010;28;756;-37
2021/05/04 07:29:22;;;;;;;;;;;;;;;27.74;27.12;101150.47;5036832;28;758;-37
2021/05/04 07:31:48;;;;;;;;;;;;;;;27.71;26.30;101153.53;5036730;28;759;-38
2021/05/04 07:34:13;;;;;;;;;;;;;;;27.77;28.19;101150.13;5037013;28;775;-37
2021/05/04 07:36:41;;;;;;;;;;;;;;;27.87;29.27;101156.16;5036783;28;1902;-36
2021/05/04 07:39:06;;;;;;;;;;;;;;;27.90;29.61;101145.97;5036773;28;932;-38
2021/05/04 07:41:32;;;;;;;;;;;;;;;27.89;29.90;101155.97;5036937;28;831;-36
2021/05/04 07:44:06;;;;;;;;;;;;;;;27.84;29.74;101153.78;5036673;28;779;-36
2021/05/04 07:46:31;;;;;;;;;;;;;;;27.87;29.54;101160.69;5036448;28;815;-38
2021/05/04 07:48:57;;;;;;;;;;;;;;;27.85;29.63;101155.47;5036975;28;791;-37
2021/05/04 07:51:22;;;;;;;;;;;;;;;27.93;29.74;101149.16;5036421;28;885;-37
2021/05/04 07:53:48;;;;;;;;;;;;;;;27.86;30.01;101150.91;5036473;28;908;-31
2021/05/04 07:56:13;;;;;;;;;;;;;;;27.92;30.07;101147.50;5045890;28;1914;-40
2021/05/04 07:58:42;;;;;;;;;;;;;;;27.93;30.07;101145.63;5056585;28;779;-37
2021/05/04 08:01:07;;;;;;;;;;;;;;;27.97;30.08;101152.34;5056146;28;791;-37
2021/05/04 08:03:33;;;;;;;;;;;;;;;28.01;29.95;101145.56;5056418;28;818;-35
2021/05/04 08:05:58;;;;;;;;;;;;;;;27.95;30.09;101149.84;5056325;28;799;-36
2021/05/04 08:08:24;;;;;;;;;;;;;;;28.01;29.93;101145.56;5054360;28;936;-36
2021/05/04 08:10:49;;;;;;;;;;;;;;;27.99;29.85;101155.72;5036591;28;732;-34
2021/05/04 08:19:16;;;;;;;;;;;;;;;27.94;29.99;101142.75;5036150;28;585;-33
2021/05/04 08:21:43;;;;;;;;;;;;;;;27.95;30.44;101140.88;5038883;28;747;-33
2021/05/04 08:24:10;;;;;;;;;;;;;;;28.03;30.41;101140.81;5048222;28;1058;-33
2021/05/04 08:26:35;;;;;;;;;;;;;;;28.06;29.88;101143.16;5060336;28;822;-34
2021/05/04 08:29:01;;;;;;;;;;;;;;;27.91;28.12;101134.97;5059718;28;880;-34
2021/05/04 08:31:26;;;;;;;;;;;;;;;27.86;26.89;101132.00;5060268;28;841;-34
2021/05/04 08:33:51;;;;;;;;;;;;;;;27.93;27.98;101132.94;5060241;28;767;-33
2021/05/04 08:36:16;;;;;;;;;;;;;;;27.98;28.93;101129.69;5058559;28;1955;-36
2021/05/04 08:38:42;;;;;;;;;;;;;;;28.07;29.09;101125.94;5059669;28;935;-38
2021/05/04 08:41:07;;;;;;;;;;;;;;;28.09;29.17;101123.88;5060239;28;869;-35
2021/05/04 08:43:34;;;;;;;;;;;;;;;28.10;29.28;101130.13;5059996;28;703;-34
2021/05/04 08:45:59;;;;;;;;;;;;;;;27.91;29.65;101128.75;5059629;28;730;-37
2021/05/04 08:48:24;;;;;;;;;;;;;;;28.08;29.42;101127.59;5059804;28;759;-36
2021/05/04 08:50:50;;;;;;;;;;;;;;;28.16;29.32;101132.09;5059912;28;756;-34
2021/05/04 08:53:16;;;;;;;;;;;;;;;28.26;29.29;101129.16;5059403;28;948;-36
2021/05/04 08:55:41;;;;;;;;;;;;;;;28.24;28.97;101132.03;5060127;28;1910;-35
2021/05/04 08:58:06;;;;;;;;;;;;;;;28.24;29.25;101128.50;5059976;28;754;-33
2021/05/04 09:00:32;;;;;;;;;;;;;;;28.24;29.26;101132.03;5058994;28;868;-36
2021/05/04 09:03:09;;;;;;;;;;;;;;;28.21;29.39;101134.28;5074762;28;1512;-38
2021/05/04 09:05:38;;;;;;;;;;;;;;;28.06;29.37;101128.81;5059685;28;826;-37
2021/05/04 09:08:08;;;;;;;;;;;;;;;27.96;29.57;101123.66;5059193;28;775;-38
2021/05/04 09:10:40;;;;;;;;;;;;;;;27.84;29.86;101123.22;5074616;28;974;-37
2021/05/04 09:16:20;;;;;;;;;;;;;;;27.93;29.86;101118.56;5059038;28;1938;-42
2021/05/04 09:21:13;;;;;;;;;;;;;;;27.95;29.88;101119.25;5059144;28;648;-40
2021/05/04 09:23:42;;;;;;;;;;;;;;;28.06;29.79;101124.22;5055132;28;972;-41
2021/05/04 09:26:16;;;;;;;;;;;;;;;28.03;30.25;101126.47;5038897;28;858;-42
2021/05/04 09:28:48;;;;;;;;;;;;;;;28.04;30.23;101117.34;5038917;28;874;-40
2021/05/04 09:31:15;;;;;;;;;;;;;;;28.06;29.76;101116.13;5038797;28;835;-42
2021/05/04 09:33:40;;;;;;;;;;;;;;;27.98;29.90;101117.03;5053384;28;1302;-45
2021/05/04 09:36:05;;;;;;;;;;;;;;;27.82;29.43;101114.44;5039016;28;1910;-41
2021/05/04 09:38:37;;;;;;;;;;;;;;;27.89;29.87;101107.31;5041865;28;941;-43
2021/05/04 09:41:02;;;;;;;;;;;;;;;27.97;30.28;101106.41;5074225;28;1238;-44
2021/05/04 09:43:37;;;;;;;;;;;;;;;28.02;29.65;101104.00;5058787;28;890;-41
2021/05/04 09:46:02;;;;;;;;;;;;;;;28.04;29.70;101101.97;5058670;28;807;-44
2021/05/04 09:48:31;;;;;;;;;;;;;;;28.12;29.33;101098.34;5058784;28;823;-43
2021/05/04 09:51:04;;;;;;;;;;;;;;;28.11;29.62;101102.91;5059018;28;798;-41
2021/05/04 09:54:10;;;;;;;;;;;;;;;28.11;29.35;101089.38;5058422;28;962;-41
2021/05/04 09:56:30;;;;;;;;;;;;;;;28.07;29.75;101089.91;5055395;28;1906;-43
2021/05/04 09:58:55;;;;;;;;;;;;;;;28.09;29.93;101091.41;5058424;28;1005;-42
2021/05/04 10:01:21;;;;;;;;;;;;;;;28.29;29.11;101098.19;5058470;28;831;-43
2021/05/04 10:03:47;;;;;;;;;;;;;;;27.99;29.38;101104.34;5051723;28;817;-41
2021/05/04 10:06:13;;;;;;;;;;;;;;;28.06;30.13;101093.66;5038371;28;888;-42
2021/05/04 10:08:38;;;;;;;;;;;;;;;28.08;30.14;101105.13;5042163;28;901;-42
2021/05/04 10:11:04;;;;;;;;;;;;;;;28.11;30.01;101097.50;5058590;28;740;-40
2021/05/04 10:13:58;;;;;;;;;;;;;;;28.15;29.46;101099.81;5058071;28;810;-41
2021/05/04 10:16:24;;;;;;;;;;;;;;;28.07;29.91;101098.88;5057691;28;1981;-42
2021/05/04 10:18:50;;;;;;;;;;;;;;;28.14;30.08;101092.75;5058140;28;787;-41
2021/05/04 10:21:15;;;;;;;;;;;;;;;28.14;29.68;101098.16;5058313;28;803;-42
2021/05/04 10:23:45;;;;;;;;;;;;;;;28.15;29.64;101089.00;5073211;28;1275;-41
2021/05/04 10:26:14;;;;;;;;;;;;;;;28.25;29.44;101089.59;5057953;28;838;-40
2021/05/04 10:28:40;;;;;;;;;;;;;;;28.27;29.48;101084.84;5058149;28;755;-38
2021/05/04 10:31:06;;;;;;;;;;;;;;;28.27;29.34;101092.13;5040089;28;819;-40
2021/05/04 10:33:36;;;;;;;;;;;;;;;28.29;29.86;101087.38;5057994;28;841;-39
2021/05/04 10:36:02;;;;;;;;;;;;;;;28.24;29.50;101087.94;5049012;28;1973;-39
2021/05/04 10:38:29;;;;;;;;;;;;;;;28.29;29.88;101090.09;5037734;28;994;-40
2021/05/04 10:40:58;;;;;;;;;;;;;;;28.36;29.57;101081.06;5019895;28;1307;-40
2021/05/04 10:43:27;;;;;;;;;;;;;;;28.32;29.68;101071.63;5037359;28;791;-44
2021/05/04 10:45:53;;;;;;;;;;;;;;;28.38;29.84;101077.38;5038001;28;802;-44
2021/05/04 10:48:41;;;;;;;;;;;;;;;28.41;29.74;101075.09;5037746;28;783;-41
2021/05/04 10:51:12;;;;;;;;;;;;;;;28.32;30.17;101078.88;5038097;28;759;-40
2021/05/04 10:54:01;;;;;;;;;;;;;;;28.44;30.10;101080.19;5041018;28;921;-42
2021/05/04 10:56:52;;;;;;;;;;;;;;;28.36;29.98;101072.13;5057321;28;1905;-46
2021/05/04 10:59:24;;;;;;;;;;;;;;;28.36;30.05;101075.66;5056323;28;1284;-41
2021/05/04 11:02:09;;;;;;;;;;;;;;;28.49;29.86;101074.22;5057438;28;854;-40
2021/05/04 11:04:44;;;;;;;;;;;;;;;28.40;30.11;101078.00;5053073;28;1725;-41
2021/05/04 11:07:09;;;;;;;;;;;;;;;28.41;30.44;101074.28;5056846;28;862;-41
2021/05/04 11:09:40;;;;;;;;;;;;;;;28.38;30.09;101074.66;5072792;28;963;-42
2021/05/04 11:12:06;;;;;;;;;;;;;;;28.34;30.17;101069.59;5057356;28;767;-44
2021/05/04 11:14:39;;;;;;;;;;;;;;;28.38;30.51;101071.94;5043958;28;1171;-41
2021/05/04 11:17:13;;;;;;;;;;;;;;;28.40;30.21;101061.75;5036435;28;1906;-43
2021/05/04 11:19:41;;;;;;;;;;;;;;;28.41;30.31;101064.28;5037661;28;728;-41
2021/05/04 11:22:07;;;;;;;;;;;;;;;27.80;30.15;101054.28;5037186;28;759;-46
2021/05/04 11:24:32;;;;;;;;;;;;;;;28.05;30.53;101049.53;5036777;28;1034;-42
2021/05/04 11:27:01;;;;;;;;;;;;;;;28.25;30.58;101049.03;5037163;28;826;-43
2021/05/04 11:29:30;;;;;;;;;;;;;;;28.39;30.57;101057.38;5037276;28;855;-42
2021/05/04 11:31:55;;;;;;;;;;;;;;;28.43;30.32;101058.69;5036852;28;768;-43
2021/05/04 11:34:37;;;;;;;;;;;;;;;28.46;30.24;101052.94;5036885;28;794;-42
2021/05/04 11:37:03;;;;;;;;;;;;;;;28.50;30.21;101053.38;5036342;28;1910;-41
2021/05/04 11:39:28;;;;;;;;;;;;;;;28.43;30.65;101047.84;5035969;28;948;-42
2021/05/04 11:41:57;;;;;;;;;;;;;;;28.44;30.30;101044.16;5036874;28;854;-43
2021/05/04 11:44:29;;;;;;;;;;;;;;;28.52;30.44;101045.91;5036732;28;752;-43
2021/05/04 11:46:54;;;;;;;;;;;;;;;28.41;30.75;101042.63;5036302;28;844;-41
2021/05/04 11:49:27;;;;;;;;;;;;;;;28.47;30.47;101041.06;5036803;28;787;-43
2021/05/04 11:52:02;;;;;;;;;;;;;;;28.48;30.41;101038.19;5036435;28;755;-42
2021/05/04 11:54:31;;;;;;;;;;;;;;;28.55;30.45;101035.56;5036571;28;909;-42
2021/05/04 11:56:56;;;;;;;;;;;;;;;28.57;30.50;101038.09;5036056;28;1902;-41
2021/05/04 11:59:23;;;;;;;;;;;;;;;28.51;30.64;101042.38;5052001;28;820;-43
2021/05/04 12:01:48;;;;;;;;;;;;;;;28.59;30.32;101044.97;5036453;28;820;-45
2021/05/04 12:04:14;;;;;;;;;;;;;;;28.57;30.62;101030.81;5036398;28;779;-46
2021/05/04 12:06:45;;;;;;;;;;;;;;;28.63;30.51;101044.63;5036683;28;851;-44
2021/05/04 12:09:14;;;;;;;;;;;;;;;28.65;30.21;101047.97;5036672;28;905;-42
2021/05/04 12:11:39;;;;;;;;;;;;;;;28.66;30.52;101041.56;5036149;28;853;-43
2021/05/04 12:14:37;;;;;;;;;;;;;;;28.79;30.55;101038.19;5036354;28;796;-42
2021/05/04 12:17:08;;;;;;;;;;;;;;;28.67;30.28;101038.66;5053072;28;1981;-41
2021/05/04 12:19:34;;;;;;;;;;;;;;;28.51;30.06;101036.13;5056309;28;803;-41
2021/05/04 12:21:59;;;;;;;;;;;;;;;28.53;30.19;101042.22;5071575;28;1330;-41
2021/05/04 12:24:24;;;;;;;;;;;;;;;28.52;30.21;101037.81;5056286;28;978;-46
2021/05/04 12:26:51;;;;;;;;;;;;;;;28.58;30.39;101037.03;5056304;28;763;-46
2021/05/04 12:29:24;;;;;;;;;;;;;;;28.71;30.15;101037.25;5056240;28;995;-46
2021/05/04 12:31:49;;;;;;;;;;;;;;;28.64;30.16;101036.31;5034250;28;847;-41
2021/05/04 12:34:21;;;;;;;;;;;;;;;28.62;30.24;101032.09;5034637;28;1472;-41
2021/05/04 12:36:49;;;;;;;;;;;;;;;28.68;30.01;101036.78;5048236;28;1971;-43
2021/05/04 12:39:23;;;;;;;;;;;;;;;28.66;30.51;101039.66;5055687;28;900;-41
2021/05/04 12:41:49;;;;;;;;;;;;;;;28.73;30.17;101034.34;5056086;28;835;-41
2021/05/04 12:44:25;;;;;;;;;;;;;;;28.76;30.30;101033.97;5038934;28;1020;-42
2021/05/04 12:46:54;;;;;;;;;;;;;;;28.74;30.06;101036.03;5036090;28;802;-42
2021/05/04 12:49:19;;;;;;;;;;;;;;;28.71;30.26;101031.81;5036213;28;827;-42
2021/05/04 12:51:46;;;;;;;;;;;;;;;28.79;29.96;101035.47;5036175;28;811;-41
2021/05/04 12:54:13;;;;;;;;;;;;;;;28.83;29.96;101028.63;5044055;28;941;-40
2021/05/04 12:56:39;;;;;;;;;;;;;;;28.88;30.25;101025.41;5055760;28;1902;-42
2021/05/04 12:59:05;;;;;;;;;;;;;;;28.84;30.23;101016.81;5056337;28;755;-44
2021/05/04 13:01:31;;;;;;;;;;;;;;;28.84;30.06;101014.91;5056164;28;771;-40
2021/05/04 13:03:58;;;;;;;;;;;;;;;28.87;30.11;101011.00;5055858;28;739;-41
2021/05/04 13:06:26;;;;;;;;;;;;;;;28.81;30.06;101004.47;5055932;28;771;-42